createdAt,value
2022-09-28T00:01:08.630Z,96460.66
2022-09-28T00:03:36.897Z,96470.00
2022-09-28T00:06:07.870Z,96468.41
2022-09-28T00:08:36.664Z,96457.53
2022-09-28T00:11:07.994Z,96458.31
2022-09-28T00:13:36.058Z,96461.75
2022-09-28T00:16:06.057Z,96459.81
2022-09-28T00:18:36.059Z,96462.13
2022-09-28T00:21:05.775Z,96466.00
2022-09-28T00:23:34.155Z,96471.41
2022-09-28T00:26:06.036Z,96479.94
2022-09-28T00:28:34.664Z,96467.50
2022-09-28T00:31:02.441Z,96467.84
2022-09-28T00:33:30.545Z,96469.75
2022-09-28T00:36:00.171Z,96467.72
2022-09-28T00:38:29.390Z,96470.84
2022-09-28T00:40:57.459Z,96468.13
2022-09-28T00:43:26.341Z,96456.66
2022-09-28T00:46:00.003Z,96466.50
2022-09-28T00:48:32.348Z,96449.44
2022-09-28T00:51:03.712Z,96455.34
2022-09-28T00:53:35.721Z,96452.28
2022-09-28T00:56:07.419Z,96447.25
2022-09-28T00:58:39.396Z,96449.53
2022-09-28T01:01:07.323Z,96437.00
2022-09-28T01:03:35.841Z,96452.97
2022-09-28T01:06:07.603Z,96448.56
2022-09-28T01:08:37.006Z,96447.72
2022-09-28T01:11:04.968Z,96445.31
2022-09-28T01:13:34.252Z,96443.66
2022-09-28T01:16:10.669Z,96449.75
2022-09-28T01:18:48.655Z,96450.56
2022-09-28T01:21:20.643Z,96451.31
2022-09-28T01:24:15.138Z,96459.94
2022-09-28T01:26:51.772Z,96452.06
2022-09-28T01:29:33.606Z,96452.75
2022-09-28T01:32:11.454Z,96452.84
2022-09-28T01:34:46.950Z,96455.00
2022-09-28T01:37:17.529Z,96463.22
2022-09-28T01:39:50.025Z,96458.22
2022-09-28T01:42:22.833Z,96462.19
2022-09-28T01:44:52.870Z,96464.13
2022-09-28T01:47:24.482Z,96466.06
2022-09-28T01:49:56.331Z,96461.66
2022-09-28T01:52:28.159Z,96467.44
2022-09-28T01:55:01.226Z,96455.41
2022-09-28T01:57:35.754Z,96460.63
2022-09-28T02:00:07.346Z,96458.19
2022-09-28T02:02:40.101Z,96464.75
2022-09-28T02:05:13.913Z,96464.34
2022-09-28T02:07:45.668Z,96469.41
2022-09-28T02:10:19.447Z,96472.88
2022-09-28T02:12:54.030Z,96471.28
2022-09-28T02:15:31.926Z,96478.53
2022-09-28T02:17:59.656Z,96477.25
2022-09-28T02:20:30.330Z,96468.16
2022-09-28T02:23:02.893Z,96479.06
2022-09-28T02:25:37.788Z,96476.97
2022-09-28T02:28:08.690Z,96487.72
2022-09-28T02:30:38.991Z,96492.81
2022-09-28T02:33:12.799Z,96485.91
2022-09-28T02:35:41.994Z,96487.38
2022-09-28T02:38:11.370Z,96482.78
2022-09-28T02:40:39.968Z,96487.44
2022-09-28T02:43:20.603Z,96491.19
2022-09-28T02:46:01.818Z,96491.13
2022-09-28T02:49:10.571Z,96492.25
2022-09-28T02:51:46.895Z,96484.94
2022-09-28T02:54:31.997Z,96495.59
2022-09-28T02:57:16.045Z,96491.31
2022-09-28T02:59:53.641Z,96487.84
2022-09-28T03:02:29.136Z,96494.28
2022-09-28T03:05:17.177Z,96469.31
2022-09-28T03:07:53.106Z,96489.63
2022-09-28T03:10:26.717Z,96485.78
2022-09-28T03:12:55.693Z,96481.94
2022-09-28T03:15:28.378Z,96479.22
2022-09-28T03:17:57.069Z,96478.44
2022-09-28T03:20:25.793Z,96477.25
2022-09-28T03:23:12.766Z,96482.22
2022-09-28T03:25:41.708Z,96481.38
2022-09-28T03:28:09.402Z,96481.28
2022-09-28T03:30:39.337Z,96487.41
2022-09-28T03:33:07.506Z,96472.72
2022-09-28T03:35:35.416Z,96483.31
2022-09-28T03:38:03.105Z,96478.19
2022-09-28T03:40:31.166Z,96485.50
2022-09-28T03:42:59.934Z,96481.16
2022-09-28T03:45:27.757Z,96497.78
2022-09-28T03:47:57.174Z,96490.78
2022-09-28T03:50:24.862Z,96492.22
2022-09-28T03:52:52.597Z,96487.38
2022-09-28T03:55:20.648Z,96484.81
2022-09-28T03:57:54.279Z,96487.38
2022-09-28T04:00:22.985Z,96485.03
2022-09-28T04:02:50.842Z,96481.25
2022-09-28T04:05:20.113Z,96493.06
2022-09-28T04:07:48.242Z,96482.09
2022-09-28T04:10:16.144Z,96484.09
2022-09-28T04:12:44.763Z,96490.78
2022-09-28T04:15:12.748Z,96486.50
2022-09-28T04:17:40.504Z,96489.28
2022-09-28T04:20:08.944Z,96495.06
2022-09-28T04:22:38.337Z,96495.59
2022-09-28T04:25:06.529Z,96504.16
2022-09-28T04:27:52.173Z,96507.19
2022-09-28T04:30:20.173Z,96503.94
2022-09-28T04:32:48.168Z,96513.63
2022-09-28T04:35:16.575Z,96504.50
2022-09-28T04:37:45.973Z,96504.19
2022-09-28T04:40:13.710Z,96512.78
2022-09-28T04:42:41.421Z,96517.50
2022-09-28T04:45:10.600Z,96513.22
2022-09-28T04:47:38.551Z,96511.69
2022-09-28T04:50:07.062Z,96510.94
2022-09-28T04:52:37.046Z,96508.63
2022-09-28T04:55:07.116Z,96511.75
2022-09-28T04:57:35.313Z,96516.03
2022-09-28T05:00:03.687Z,96507.59
2022-09-28T05:02:32.270Z,96507.41
2022-09-28T05:05:00.813Z,96518.38
2022-09-28T05:07:31.154Z,96515.81
2022-09-28T05:09:58.908Z,96512.41
2022-09-28T05:12:28.070Z,96516.84
2022-09-28T05:14:56.478Z,96519.16
2022-09-28T05:17:24.456Z,96513.25
2022-09-28T05:19:52.152Z,96512.25
2022-09-28T05:22:20.402Z,96515.72
2022-09-28T05:24:48.095Z,96523.59
2022-09-28T05:27:15.847Z,96523.22
2022-09-28T05:29:45.390Z,96521.66
2022-09-28T05:32:13.143Z,96519.94
2022-09-28T05:34:40.847Z,96522.09
2022-09-28T05:37:08.978Z,96510.06
2022-09-28T05:39:36.686Z,96532.00
2022-09-28T05:42:04.582Z,96522.53
2022-09-28T05:44:32.718Z,96522.97
2022-09-28T05:47:01.857Z,96520.97
2022-09-28T05:49:31.631Z,96525.25
2022-09-28T05:51:59.629Z,96524.81
2022-09-28T05:54:27.380Z,96527.28
2022-09-28T05:56:55.085Z,96527.75
2022-09-28T05:59:23.430Z,96528.06
2022-09-28T06:01:51.197Z,96527.75
2022-09-28T06:04:20.852Z,96528.13
2022-09-28T06:06:48.958Z,96528.22
2022-09-28T06:09:16.775Z,96531.34
2022-09-28T06:11:44.533Z,96534.25
2022-09-28T06:14:13.649Z,96531.19
2022-09-28T06:16:43.830Z,96530.84
2022-09-28T06:19:13.164Z,96530.91
2022-09-28T06:21:42.734Z,96527.03
2022-09-28T06:24:10.671Z,96531.75
2022-09-28T06:26:38.463Z,96532.31
2022-09-28T06:29:06.665Z,96525.72
2022-09-28T06:31:34.413Z,96517.22
2022-09-28T06:34:02.312Z,96519.59
2022-09-28T06:36:31.187Z,96514.66
2022-09-28T06:39:00.449Z,96503.13
2022-09-28T06:41:28.517Z,96506.56
2022-09-28T06:43:56.726Z,96512.13
2022-09-28T06:46:25.427Z,96505.47
2022-09-28T06:48:54.516Z,96509.72
2022-09-28T06:51:22.630Z,96514.41
2022-09-28T06:53:53.759Z,96514.59
2022-09-28T06:56:22.893Z,96513.16
2022-09-28T06:58:51.446Z,96519.28
2022-09-28T07:01:19.242Z,96525.53
2022-09-28T07:03:47.113Z,96522.56
2022-09-28T07:06:15.421Z,96526.41
2022-09-28T07:08:46.125Z,96527.59
2022-09-28T07:11:26.725Z,96529.59
2022-09-28T07:13:54.462Z,96520.94
2022-09-28T07:16:26.925Z,96510.81
2022-09-28T07:18:57.477Z,96522.56
2022-09-28T07:21:30.253Z,96524.28
2022-09-28T07:24:00.018Z,96528.19
2022-09-28T07:26:29.416Z,96529.69
2022-09-28T07:28:57.335Z,96534.06
2022-09-28T07:31:26.162Z,96527.88
2022-09-28T07:33:56.014Z,96535.31
2022-09-28T07:36:23.777Z,96540.47
2022-09-28T07:38:51.528Z,96533.91
2022-09-28T07:41:26.889Z,96539.75
2022-09-28T07:43:56.105Z,96536.25
2022-09-28T07:46:24.202Z,96543.69
2022-09-28T07:48:53.604Z,96552.66
2022-09-28T07:51:21.394Z,96550.72
2022-09-28T07:53:49.377Z,96548.00
2022-09-28T07:56:21.116Z,96544.47
2022-09-28T07:58:49.793Z,96546.03
2022-09-28T08:01:19.384Z,96553.47
2022-09-28T08:03:48.031Z,96545.66
2022-09-28T08:06:17.695Z,96551.09
2022-09-28T08:08:46.378Z,96548.75
2022-09-28T08:11:15.765Z,96539.41
2022-09-28T08:13:45.672Z,96548.38
2022-09-28T08:16:14.196Z,96547.22
2022-09-28T08:18:43.369Z,96544.81
2022-09-28T08:21:29.174Z,96537.72
2022-09-28T08:23:57.455Z,96540.09
2022-09-28T08:26:25.625Z,96536.19
2022-09-28T08:28:53.393Z,96534.28
2022-09-28T08:31:21.497Z,96527.59
2022-09-28T08:33:54.340Z,96536.22
2022-09-28T08:36:22.509Z,96540.97
2022-09-28T08:38:50.667Z,96545.66
2022-09-28T08:41:25.644Z,96530.03
2022-09-28T08:44:02.733Z,96539.41
2022-09-28T08:46:36.813Z,96528.06
2022-09-28T08:49:26.278Z,96538.22
2022-09-28T08:51:59.626Z,96539.00
2022-09-28T08:54:44.000Z,96537.06
2022-09-28T08:57:15.541Z,96532.41
2022-09-28T08:59:49.801Z,96526.16
2022-09-28T09:02:22.346Z,96526.50
2022-09-28T09:04:53.172Z,96526.91
2022-09-28T09:07:43.994Z,96535.50
2022-09-28T09:10:30.092Z,96529.25
2022-09-28T09:13:12.386Z,96530.81
2022-09-28T09:15:49.085Z,96522.91
2022-09-28T09:18:27.302Z,96526.75
2022-09-28T09:20:58.310Z,96529.84
2022-09-28T09:23:36.537Z,96522.69
2022-09-28T09:26:16.439Z,96517.97
2022-09-28T09:29:10.816Z,96523.06
2022-09-28T09:31:54.361Z,96530.53
2022-09-28T09:34:52.285Z,96532.88
2022-09-28T09:37:34.888Z,96534.25
2022-09-28T09:40:19.060Z,96535.25
2022-09-28T09:43:02.758Z,96528.78
2022-09-28T09:45:42.712Z,96536.59
2022-09-28T09:48:15.681Z,96525.56
2022-09-28T09:50:49.235Z,96524.00
2022-09-28T09:53:25.172Z,96529.41
2022-09-28T09:55:57.495Z,96517.06
2022-09-28T09:58:32.427Z,96513.81
2022-09-28T10:01:09.052Z,96511.22
2022-09-28T10:03:42.000Z,96500.53
2022-09-28T10:06:13.730Z,96510.22
2022-09-28T10:08:45.280Z,96504.66
2022-09-28T10:11:18.947Z,96503.91
2022-09-28T10:13:48.431Z,96506.38
2022-09-28T10:16:18.851Z,96508.88
2022-09-28T10:18:46.836Z,96503.28
2022-09-28T10:21:15.361Z,96499.66
2022-09-28T10:23:45.144Z,96493.06
2022-09-28T10:26:18.072Z,96499.94
2022-09-28T10:28:53.056Z,96499.84
2022-09-28T10:31:41.681Z,96508.75
2022-09-28T10:34:14.103Z,96508.00
2022-09-28T10:36:51.973Z,96489.91
2022-09-28T10:39:34.437Z,96496.13
2022-09-28T10:42:04.503Z,96499.34
2022-09-28T10:44:34.649Z,96495.28
2022-09-28T10:47:04.813Z,96494.94
2022-09-28T10:49:45.826Z,96493.84
2022-09-28T10:52:34.774Z,96490.44
2022-09-28T10:55:23.616Z,96485.53
2022-09-28T10:57:51.681Z,96477.53
2022-09-28T11:00:37.171Z,96480.91
2022-09-28T11:03:05.905Z,96470.47
2022-09-28T11:05:33.977Z,96456.69
2022-09-28T11:08:06.887Z,96460.31
2022-09-28T11:10:37.161Z,96455.59
2022-09-28T11:13:09.912Z,96461.00
2022-09-28T11:15:43.957Z,96457.69
2022-09-28T11:18:26.717Z,96449.97
2022-09-28T11:21:10.862Z,96451.47
2022-09-28T11:23:41.004Z,96457.22
2022-09-28T11:26:17.675Z,96445.75
2022-09-28T11:28:52.297Z,96451.13
2022-09-28T11:31:27.479Z,96449.63
2022-09-28T11:34:06.216Z,96449.34
2022-09-28T11:36:52.853Z,96443.16
2022-09-28T11:39:30.390Z,96448.53
2022-09-28T11:42:16.100Z,96445.91
2022-09-28T11:44:46.740Z,96438.66
2022-09-28T11:47:46.398Z,96422.03
2022-09-28T11:50:24.274Z,96428.19
2022-09-28T11:53:01.616Z,96424.09
2022-09-28T11:55:36.124Z,96421.78
2022-09-28T11:58:12.737Z,96425.69
2022-09-28T12:00:46.477Z,96420.22
2022-09-28T12:03:19.340Z,96421.88
2022-09-28T12:05:52.517Z,96424.28
2022-09-28T12:08:27.289Z,96422.59
2022-09-28T12:11:00.611Z,96408.97
2022-09-28T12:13:35.199Z,96411.03
2022-09-28T12:16:32.285Z,96380.75
2022-09-28T12:21:37.664Z,96400.19
2022-09-28T12:24:16.073Z,96400.69
2022-09-28T12:26:49.817Z,96388.44
2022-09-28T12:29:24.678Z,96402.31
2022-09-28T12:32:05.336Z,96391.66
2022-09-28T12:34:33.745Z,96389.38
2022-09-28T12:37:28.651Z,96383.19
2022-09-28T12:40:22.324Z,96376.88
2022-09-28T12:43:06.673Z,96367.06
2022-09-28T12:46:10.821Z,96367.00
2022-09-28T12:49:56.273Z,96363.91
2022-09-28T12:51:54.072Z,96372.94
2022-09-28T12:54:41.443Z,96364.91
2022-09-28T12:57:30.748Z,96368.88
2022-09-28T13:00:04.342Z,96365.47
2022-09-28T13:02:51.788Z,96383.28
2022-09-28T13:05:47.024Z,96371.38
2022-09-28T13:08:23.858Z,96365.00
2022-09-28T13:11:07.820Z,96368.72
2022-09-28T13:13:49.078Z,96368.47
2022-09-28T13:16:26.692Z,96366.94
2022-09-28T13:19:07.339Z,96356.34
2022-09-28T13:21:44.929Z,96366.59
2022-09-28T13:24:32.106Z,96366.47
2022-09-28T13:27:10.373Z,96355.66
2022-09-28T13:29:40.250Z,96366.38
2022-09-28T13:32:09.551Z,96369.34
2022-09-28T13:34:40.098Z,96356.72
2022-09-28T13:37:24.009Z,96346.16
2022-09-28T13:39:53.244Z,96345.69
2022-09-28T13:42:54.118Z,96355.75
2022-09-28T13:45:34.798Z,96359.53
2022-09-28T13:48:13.496Z,96364.44
2022-09-28T13:51:18.600Z,96365.00
2022-09-28T13:54:33.170Z,96367.50
2022-09-28T13:57:12.965Z,96373.22
2022-09-28T13:59:52.009Z,96375.22
2022-09-28T14:02:31.649Z,96366.69
2022-09-28T14:05:02.903Z,96382.69
2022-09-28T14:08:11.081Z,96368.03
2022-09-28T14:10:51.606Z,96357.16
2022-09-28T14:13:56.557Z,96356.44
2022-09-28T14:16:27.478Z,96361.19
2022-09-28T14:19:00.203Z,96351.09
2022-09-28T14:22:01.238Z,96361.00
2022-09-28T14:24:39.533Z,96366.34
2022-09-28T14:27:35.530Z,96359.88
2022-09-28T14:30:20.849Z,96356.38
2022-09-28T14:32:54.625Z,96356.00
2022-09-28T14:35:31.231Z,96350.44
2022-09-28T14:38:21.602Z,96352.97
2022-09-28T14:41:13.453Z,96345.22
2022-09-28T14:44:02.475Z,96346.81
2022-09-28T14:46:36.689Z,96337.88
2022-09-28T14:49:26.505Z,96333.34
2022-09-28T14:52:05.745Z,96331.53
2022-09-28T14:54:49.040Z,96329.28
2022-09-28T14:57:20.910Z,96330.03
2022-09-28T14:59:49.089Z,96326.09
2022-09-28T15:02:24.915Z,96329.66
2022-09-28T15:04:59.919Z,96338.38
2022-09-28T15:07:30.345Z,96328.69
2022-09-28T15:09:59.312Z,96332.22
2022-09-28T15:12:30.018Z,96335.50
2022-09-28T15:15:01.281Z,96326.38
2022-09-28T15:17:39.204Z,96333.59
2022-09-28T15:20:23.799Z,96338.38
2022-09-28T15:22:57.123Z,96332.03
2022-09-28T15:25:26.980Z,96333.69
2022-09-28T15:27:58.066Z,96325.94
2022-09-28T15:30:28.530Z,96338.38
2022-09-28T15:33:18.324Z,96327.28
2022-09-28T15:35:48.947Z,96326.69
2022-09-28T15:38:18.331Z,96319.44
2022-09-28T15:40:47.589Z,96326.34
2022-09-28T15:43:27.091Z,96320.34
2022-09-28T15:46:02.862Z,96326.16
2022-09-28T15:48:34.372Z,96324.66
2022-09-28T15:51:10.787Z,96332.94
2022-09-28T15:53:44.349Z,96322.81
2022-09-28T15:56:12.574Z,96328.72
2022-09-28T15:58:41.965Z,96324.38
2022-09-28T16:01:35.861Z,96327.16
2022-09-28T16:04:37.241Z,96324.81
2022-09-28T16:07:07.571Z,96323.25
2022-09-28T16:09:54.979Z,96321.38
2022-09-28T16:12:23.378Z,96318.59
2022-09-28T16:14:56.808Z,96321.81
2022-09-28T16:17:32.683Z,96326.56
2022-09-28T16:20:04.681Z,96318.03
2022-09-28T16:22:33.469Z,96325.00
2022-09-28T16:25:02.811Z,96332.47
2022-09-28T16:27:42.688Z,96328.31
2022-09-28T16:30:24.047Z,96327.44
2022-09-28T16:32:54.108Z,96328.13
2022-09-28T16:35:26.447Z,96330.66
2022-09-28T16:38:00.236Z,96326.84
2022-09-28T16:40:29.455Z,96323.38
2022-09-28T16:43:02.140Z,96325.34
2022-09-28T16:45:32.830Z,96331.22
2022-09-28T16:48:01.553Z,96329.31
2022-09-28T16:50:29.624Z,96329.25
2022-09-28T16:53:18.670Z,96325.38
2022-09-28T16:55:49.527Z,96337.19
2022-09-28T16:58:18.536Z,96342.69
2022-09-28T17:00:47.601Z,96330.16
2022-09-28T17:03:20.194Z,96324.56
2022-09-28T17:05:49.139Z,96326.16
2022-09-28T17:08:18.858Z,96323.06
2022-09-28T17:13:40.869Z,96329.34
2022-09-28T17:16:14.198Z,96330.16
2022-09-28T17:18:42.927Z,96344.66
2022-09-28T17:21:14.891Z,96346.19
2022-09-28T17:23:42.662Z,96342.59
2022-09-28T17:26:18.644Z,96349.69
2022-09-28T17:28:46.571Z,96341.09
2022-09-28T17:31:17.385Z,96346.50
2022-09-28T17:33:45.950Z,96352.44
2022-09-28T17:36:16.171Z,96348.06
2022-09-28T17:38:45.795Z,96350.41
2022-09-28T17:41:19.435Z,96347.31
2022-09-28T17:43:49.168Z,96347.78
2022-09-28T17:46:28.913Z,96345.06
2022-09-28T17:48:59.748Z,96350.19
2022-09-28T17:51:30.081Z,96354.50
2022-09-28T17:53:58.672Z,96364.66
2022-09-28T17:56:31.145Z,96358.81
2022-09-28T17:59:03.678Z,96341.38
2022-09-28T18:01:35.113Z,96363.94
2022-09-28T18:04:05.249Z,96342.53
2022-09-28T18:06:33.831Z,96360.03
2022-09-28T18:09:02.921Z,96363.16
2022-09-28T18:11:33.291Z,96366.72
2022-09-28T18:14:01.366Z,96368.75
2022-09-28T18:16:29.658Z,96353.16
2022-09-28T18:18:59.971Z,96368.78
2022-09-28T18:21:27.769Z,96378.09
2022-09-28T18:23:55.525Z,96368.78
2022-09-28T18:26:23.618Z,96374.69
2022-09-28T18:28:54.867Z,96381.31
2022-09-28T18:31:23.116Z,96376.25
2022-09-28T18:33:51.756Z,96364.91
2022-09-28T18:36:20.766Z,96381.69
2022-09-28T18:38:48.457Z,96385.28
2022-09-28T18:41:16.720Z,96393.06
2022-09-28T18:43:44.890Z,96388.44
2022-09-28T18:46:12.800Z,96397.81
2022-09-28T18:48:41.591Z,96405.66
2022-09-28T18:51:10.914Z,96404.06
2022-09-28T18:53:41.101Z,96398.59
2022-09-28T18:56:10.683Z,96411.16
2022-09-28T18:58:40.310Z,96395.56
2022-09-28T19:01:28.969Z,96409.59
2022-09-28T19:03:59.941Z,96413.53
2022-09-28T19:06:30.660Z,96423.66
2022-09-28T19:09:01.831Z,96415.81
2022-09-28T19:11:30.032Z,96425.25
2022-09-28T19:13:57.850Z,96426.06
2022-09-28T19:16:29.044Z,96426.44
2022-09-28T19:18:57.515Z,96429.97
2022-09-28T19:21:27.490Z,96427.63
2022-09-28T19:23:55.769Z,96431.56
2022-09-28T19:26:26.817Z,96429.22
2022-09-28T19:28:55.993Z,96421.78
2022-09-28T19:31:25.049Z,96442.50
2022-09-28T19:33:53.002Z,96422.22
2022-09-28T19:36:23.494Z,96426.19
2022-09-28T19:38:53.325Z,96418.41
2022-09-28T19:41:40.768Z,96426.63
2022-09-28T19:44:19.269Z,96436.38
2022-09-28T19:46:47.804Z,96436.78
2022-09-28T19:49:19.322Z,96437.97
2022-09-28T19:52:11.684Z,96434.13
2022-09-28T19:54:38.062Z,96444.66
2022-09-28T19:57:07.966Z,96433.34
2022-09-28T19:59:38.202Z,96450.50
2022-09-28T20:02:08.780Z,96448.94
2022-09-28T20:04:36.728Z,96450.50
2022-09-28T20:07:05.180Z,96470.75
2022-09-28T20:09:33.973Z,96473.09
2022-09-28T20:12:02.121Z,96471.53
2022-09-28T20:14:34.201Z,96462.97
2022-09-28T20:17:07.577Z,96471.53
2022-09-28T20:19:36.005Z,96479.72
2022-09-28T20:22:03.783Z,96477.78
2022-09-28T20:24:33.280Z,96478.56
2022-09-28T20:27:01.844Z,96468.44
2022-09-28T20:29:31.413Z,96481.69
2022-09-28T20:32:00.513Z,96504.22
2022-09-28T20:34:29.592Z,96496.38
2022-09-28T20:36:57.389Z,96490.09
2022-09-28T20:39:25.508Z,96501.78
2022-09-28T20:41:53.526Z,96490.88
2022-09-28T20:44:21.462Z,96506.41
2022-09-28T20:46:51.196Z,96506.34
2022-09-28T20:49:18.923Z,96498.28
2022-09-28T20:51:48.121Z,96514.25
2022-09-28T20:54:16.419Z,96503.38
2022-09-28T20:56:44.881Z,96515.06
2022-09-28T20:59:13.258Z,96519.00
2022-09-28T21:01:42.088Z,96502.25
2022-09-28T21:04:11.777Z,96516.72
2022-09-28T21:06:41.255Z,96508.94
2022-09-28T21:09:12.629Z,96512.84
2022-09-28T21:11:41.479Z,96507.78
2022-09-28T21:14:10.516Z,96519.09
2022-09-28T21:16:39.756Z,96522.97
2022-09-28T21:19:07.557Z,96520.66
2022-09-28T21:21:35.462Z,96508.16
2022-09-28T21:24:04.093Z,96506.56
2022-09-28T21:26:34.994Z,96506.97
2022-09-28T21:29:05.213Z,96500.38
2022-09-28T21:31:39.369Z,96497.66
2022-09-28T21:34:07.396Z,96502.72
2022-09-28T21:36:35.438Z,96510.50
2022-09-28T21:39:06.005Z,96509.75
2022-09-28T21:41:39.181Z,96511.69
2022-09-28T21:44:07.384Z,96511.28
2022-09-28T21:46:36.430Z,96516.75
2022-09-28T21:49:08.670Z,96526.88
2022-09-28T21:51:37.531Z,96532.34
2022-09-28T21:54:05.827Z,96537.38
2022-09-28T21:56:33.593Z,96521.38
2022-09-28T21:59:02.902Z,96545.59
2022-09-28T22:01:31.620Z,96555.69
2022-09-28T22:03:59.892Z,96555.69
2022-09-28T22:06:28.921Z,96555.69
2022-09-28T22:08:58.454Z,96564.28
2022-09-28T22:11:28.212Z,96558.81
2022-09-28T22:13:57.606Z,96560.34
2022-09-28T22:16:29.538Z,96561.94
2022-09-28T22:18:57.822Z,96561.13
2022-09-28T22:21:28.173Z,96560.34
2022-09-28T22:24:00.763Z,96551.72
2022-09-28T22:26:29.251Z,96557.59
2022-09-28T22:28:58.809Z,96568.88
2022-09-28T22:31:30.026Z,96564.19
2022-09-28T22:33:58.910Z,96558.69
2022-09-28T22:36:27.055Z,96563.41
2022-09-28T22:38:56.339Z,96566.53
2022-09-28T22:41:24.933Z,96574.31
2022-09-28T22:43:54.506Z,96571.94
2022-09-28T22:46:24.785Z,96561.41
2022-09-28T22:48:56.214Z,96567.19
2022-09-28T22:51:25.521Z,96572.66
2022-09-28T22:53:53.449Z,96580.44
2022-09-28T22:56:21.527Z,96585.81
2022-09-28T22:58:49.347Z,96574.94
2022-09-28T23:01:20.879Z,96581.97
2022-09-28T23:03:49.568Z,96587.47
2022-09-28T23:06:22.554Z,96589.00
2022-09-28T23:08:51.331Z,96583.53
2022-09-28T23:11:19.734Z,96577.38
2022-09-28T23:13:50.068Z,96575.81
2022-09-28T23:16:18.416Z,96592.19
2022-09-28T23:18:46.284Z,96586.72
2022-09-28T23:21:16.113Z,96597.66
2022-09-28T23:23:46.423Z,96603.03
2022-09-28T23:26:16.026Z,96596.72
2022-09-28T23:28:44.998Z,96588.16
2022-09-28T23:31:15.839Z,96592.03
2022-09-28T23:33:44.238Z,96597.50
2022-09-28T23:36:12.569Z,96589.69
2022-09-28T23:38:40.678Z,96600.88
2022-09-28T23:41:10.597Z,96600.41
2022-09-28T23:43:38.408Z,96591.81
2022-09-28T23:46:07.335Z,96601.19
2022-09-28T23:48:35.410Z,96598.06
2022-09-28T23:51:03.954Z,96592.56
2022-09-28T23:53:33.111Z,96603.13
2022-09-28T23:56:01.265Z,96603.94
2022-09-28T23:58:30.550Z,96601.25
